sensor_id;sensor_type;location;lat;lon;timestamp;temperature;humidity
74940;HTU21D;63505;45.226;37.908;2022-12-16T00:01:12;7.32;93.30
74940;HTU21D;63505;45.226;37.908;2022-12-16T00:03:40;7.33;93.30
74940;HTU21D;63505;45.226;37.908;2022-12-16T00:06:07;7.33;93.32
74940;HTU21D;63505;45.226;37.908;2022-12-16T00:08:36;7.35;93.36
74940;HTU21D;63505;45.226;37.908;2022-12-16T00:11:02;7.38;93.40
74940;HTU21D;63505;45.226;37.908;2022-12-16T00:13:30;7.39;93.42
74940;HTU21D;63505;45.226;37.908;2022-12-16T00:15:56;7.42;93.46
74940;HTU21D;63505;45.226;37.908;2022-12-16T00:18:22;7.45;93.46
74940;HTU21D;63505;45.226;37.908;2022-12-16T00:20:52;7.47;93.47
74940;HTU21D;63505;45.226;37.908;2022-12-16T00:23:18;7.49;93.49
74940;HTU21D;63505;45.226;37.908;2022-12-16T00:25:45;7.54;93.49
74940;HTU21D;63505;45.226;37.908;2022-12-16T00:28:13;7.56;93.51
74940;HTU21D;63505;45.226;37.908;2022-12-16T00:30:41;7.57;93.50
74940;HTU21D;63505;45.226;37.908;2022-12-16T00:33:08;7.58;93.53
74940;HTU21D;63505;45.226;37.908;2022-12-16T00:35:34;7.60;93.55
74940;HTU21D;63505;45.226;37.908;2022-12-16T00:38:00;7.62;93.57
74940;HTU21D;63505;45.226;37.908;2022-12-16T00:40:26;7.65;93.55
74940;HTU21D;63505;45.226;37.908;2022-12-16T00:42:52;7.67;93.53
74940;HTU21D;63505;45.226;37.908;2022-12-16T00:45:18;7.69;93.52
74940;HTU21D;63505;45.226;37.908;2022-12-16T00:47:48;7.65;93.52
74940;HTU21D;63505;45.226;37.908;2022-12-16T00:50:15;7.67;93.53
74940;HTU21D;63505;45.226;37.908;2022-12-16T00:52:41;7.67;93.53
74940;HTU21D;63505;45.226;37.908;2022-12-16T00:55:07;7.65;93.54
74940;HTU21D;63505;45.226;37.908;2022-12-16T00:57:33;7.67;93.58
74940;HTU21D;63505;45.226;37.908;2022-12-16T00:59:59;7.72;93.62
74940;HTU21D;63505;45.226;37.908;2022-12-16T01:02:25;7.75;93.62
74940;HTU21D;63505;45.226;37.908;2022-12-16T01:04:51;7.75;93.62
74940;HTU21D;63505;45.226;37.908;2022-12-16T01:07:18;7.77;93.64
74940;HTU21D;63505;45.226;37.908;2022-12-16T01:09:44;7.79;93.65
74940;HTU21D;63505;45.226;37.908;2022-12-16T01:12:09;7.81;93.67
74940;HTU21D;63505;45.226;37.908;2022-12-16T01:14:36;7.83;93.69
74940;HTU21D;63505;45.226;37.908;2022-12-16T01:17:01;7.87;93.68
74940;HTU21D;63505;45.226;37.908;2022-12-16T01:19:27;7.90;93.69
74940;HTU21D;63505;45.226;37.908;2022-12-16T01:21:53;7.96;93.67
74940;HTU21D;63505;45.226;37.908;2022-12-16T01:24:19;8.01;93.64
74940;HTU21D;63505;45.226;37.908;2022-12-16T01:26:45;8.04;93.61
74940;HTU21D;63505;45.226;37.908;2022-12-16T01:29:10;8.08;93.58
74940;HTU21D;63505;45.226;37.908;2022-12-16T01:31:36;8.13;93.52
74940;HTU21D;63505;45.226;37.908;2022-12-16T01:34:03;8.18;93.49
74940;HTU21D;63505;45.226;37.908;2022-12-16T01:36:29;8.22;93.44
74940;HTU21D;63505;45.226;37.908;2022-12-16T01:38:55;8.27;93.40
74940;HTU21D;63505;45.226;37.908;2022-12-16T01:41:21;8.31;93.36
74940;HTU21D;63505;45.226;37.908;2022-12-16T01:43:47;8.35;93.33
74940;HTU21D;63505;45.226;37.908;2022-12-16T01:46:15;8.43;93.29
74940;HTU21D;63505;45.226;37.908;2022-12-16T01:51:17;8.58;93.18
74940;HTU21D;63505;45.226;37.908;2022-12-16T01:53:47;8.64;93.11
74940;HTU21D;63505;45.226;37.908;2022-12-16T01:56:15;8.68;93.06
74940;HTU21D;63505;45.226;37.908;2022-12-16T01:58:43;8.75;93.00
74940;HTU21D;63505;45.226;37.908;2022-12-16T02:01:09;8.81;92.94
74940;HTU21D;63505;45.226;37.908;2022-12-16T02:03:36;8.87;92.89
74940;HTU21D;63505;45.226;37.908;2022-12-16T02:06:04;8.93;92.85
74940;HTU21D;63505;45.226;37.908;2022-12-16T02:08:31;9.02;92.80
74940;HTU21D;63505;45.226;37.908;2022-12-16T02:11:07;9.06;92.72
74940;HTU21D;63505;45.226;37.908;2022-12-16T02:14:09;9.10;92.69
74940;HTU21D;63505;45.226;37.908;2022-12-16T02:27:35;9.46;92.59
74940;HTU21D;63505;45.226;37.908;2022-12-16T02:30:24;9.53;92.53
74940;HTU21D;63505;45.226;37.908;2022-12-16T02:33:05;9.56;92.49
74940;HTU21D;63505;45.226;37.908;2022-12-16T02:38:23;9.63;92.49
74940;HTU21D;63505;45.226;37.908;2022-12-16T02:41:07;9.65;92.55
74940;HTU21D;63505;45.226;37.908;2022-12-16T02:44:02;9.71;92.60
74940;HTU21D;63505;45.226;37.908;2022-12-16T02:46:30;9.79;92.60
74940;HTU21D;63505;45.226;37.908;2022-12-16T02:51:57;9.93;92.56
74940;HTU21D;63505;45.226;37.908;2022-12-16T02:54:23;9.96;92.56
74940;HTU21D;63505;45.226;37.908;2022-12-16T03:02:14;10.07;92.52
74940;HTU21D;63505;45.226;37.908;2022-12-16T03:04:53;10.08;92.54
74940;HTU21D;63505;45.226;37.908;2022-12-16T03:07:22;10.08;92.55
74940;HTU21D;63505;45.226;37.908;2022-12-16T03:09:50;10.09;92.56
74940;HTU21D;63505;45.226;37.908;2022-12-16T03:12:19;10.09;92.56
74940;HTU21D;63505;45.226;37.908;2022-12-16T03:14:51;10.09;92.58
74940;HTU21D;63505;45.226;37.908;2022-12-16T03:17:19;10.07;92.61
74940;HTU21D;63505;45.226;37.908;2022-12-16T03:19:56;10.09;92.63
74940;HTU21D;63505;45.226;37.908;2022-12-16T03:22:32;10.09;92.64
74940;HTU21D;63505;45.226;37.908;2022-12-16T03:24:58;10.07;92.65
74940;HTU21D;63505;45.226;37.908;2022-12-16T03:27:30;10.06;92.67
74940;HTU21D;63505;45.226;37.908;2022-12-16T03:30:10;10.05;92.69
74940;HTU21D;63505;45.226;37.908;2022-12-16T03:35:33;9.98;92.70
74940;HTU21D;63505;45.226;37.908;2022-12-16T03:37:59;9.94;92.72
74940;HTU21D;63505;45.226;37.908;2022-12-16T03:40:27;9.89;92.72
74940;HTU21D;63505;45.226;37.908;2022-12-16T03:42:54;9.81;92.75
74940;HTU21D;63505;45.226;37.908;2022-12-16T03:45:32;9.75;92.78
74940;HTU21D;63505;45.226;37.908;2022-12-16T03:48:01;9.68;92.80
74940;HTU21D;63505;45.226;37.908;2022-12-16T03:50:29;9.64;92.84
74940;HTU21D;63505;45.226;37.908;2022-12-16T03:52:57;9.59;92.84
74940;HTU21D;63505;45.226;37.908;2022-12-16T03:55:22;9.52;92.85
74940;HTU21D;63505;45.226;37.908;2022-12-16T04:00:33;9.39;92.88
74940;HTU21D;63505;45.226;37.908;2022-12-16T04:02:59;9.34;92.91
74940;HTU21D;63505;45.226;37.908;2022-12-16T04:05:24;9.29;92.90
74940;HTU21D;63505;45.226;37.908;2022-12-16T04:07:50;9.22;92.92
74940;HTU21D;63505;45.226;37.908;2022-12-16T04:10:16;9.18;92.91
74940;HTU21D;63505;45.226;37.908;2022-12-16T04:13:02;9.14;92.94
74940;HTU21D;63505;45.226;37.908;2022-12-16T04:15:46;9.11;92.94
74940;HTU21D;63505;45.226;37.908;2022-12-16T04:18:31;9.06;92.92
74940;HTU21D;63505;45.226;37.908;2022-12-16T04:21:16;8.97;92.89
74940;HTU21D;63505;45.226;37.908;2022-12-16T04:24:00;8.88;92.91
74940;HTU21D;63505;45.226;37.908;2022-12-16T04:26:45;8.74;92.88
74940;HTU21D;63505;45.226;37.908;2022-12-16T04:29:30;8.63;92.96
74940;HTU21D;63505;45.226;37.908;2022-12-16T04:31:57;8.57;93.02
74940;HTU21D;63505;45.226;37.908;2022-12-16T04:34:23;8.50;93.07
74940;HTU21D;63505;45.226;37.908;2022-12-16T04:37:01;8.45;93.11
74940;HTU21D;63505;45.226;37.908;2022-12-16T04:39:46;8.39;93.13
74940;HTU21D;63505;45.226;37.908;2022-12-16T04:42:31;8.31;93.11
74940;HTU21D;63505;45.226;37.908;2022-12-16T04:45:16;8.21;93.11
74940;HTU21D;63505;45.226;37.908;2022-12-16T04:48:01;8.12;93.14
74940;HTU21D;63505;45.226;37.908;2022-12-16T04:50:46;8.02;93.11
74940;HTU21D;63505;45.226;37.908;2022-12-16T04:53:30;7.89;93.10
74940;HTU21D;63505;45.226;37.908;2022-12-16T04:56:15;7.72;92.96
74940;HTU21D;63505;45.226;37.908;2022-12-16T04:58:59;7.57;93.14
74940;HTU21D;63505;45.226;37.908;2022-12-16T05:01:44;7.61;93.29
74940;HTU21D;63505;45.226;37.908;2022-12-16T05:04:28;7.68;93.32
74940;HTU21D;63505;45.226;37.908;2022-12-16T05:07:13;7.76;93.30
74940;HTU21D;63505;45.226;37.908;2022-12-16T05:09:57;7.83;93.24
74940;HTU21D;63505;45.226;37.908;2022-12-16T05:12:42;7.90;93.24
74940;HTU21D;63505;45.226;37.908;2022-12-16T05:15:26;8.01;93.20
74940;HTU21D;63505;45.226;37.908;2022-12-16T05:18:13;8.08;93.10
74940;HTU21D;63505;45.226;37.908;2022-12-16T05:20:58;8.18;93.03
74940;HTU21D;63505;45.226;37.908;2022-12-16T05:23:43;8.24;92.98
74940;HTU21D;63505;45.226;37.908;2022-12-16T05:26:28;8.33;92.93
74940;HTU21D;63505;45.226;37.908;2022-12-16T05:29:17;8.43;92.85
74940;HTU21D;63505;45.226;37.908;2022-12-16T05:32:01;8.48;92.80
74940;HTU21D;63505;45.226;37.908;2022-12-16T05:34:46;8.56;92.75
74940;HTU21D;63505;45.226;37.908;2022-12-16T05:37:30;8.62;92.69
74940;HTU21D;63505;45.226;37.908;2022-12-16T05:40:15;8.70;92.60
74940;HTU21D;63505;45.226;37.908;2022-12-16T05:42:59;8.73;92.56
74940;HTU21D;63505;45.226;37.908;2022-12-16T05:45:44;8.78;92.50
74940;HTU21D;63505;45.226;37.908;2022-12-16T05:48:29;8.81;92.45
74940;HTU21D;63505;45.226;37.908;2022-12-16T05:51:13;8.81;92.43
74940;HTU21D;63505;45.226;37.908;2022-12-16T05:53:58;8.83;92.43
74940;HTU21D;63505;45.226;37.908;2022-12-16T05:56:42;8.88;92.41
74940;HTU21D;63505;45.226;37.908;2022-12-16T05:59:26;8.91;92.39
74940;HTU21D;63505;45.226;37.908;2022-12-16T06:02:10;8.95;92.40
74940;HTU21D;63505;45.226;37.908;2022-12-16T06:04:55;9.00;92.37
74940;HTU21D;63505;45.226;37.908;2022-12-16T06:07:39;9.05;92.36
74940;HTU21D;63505;45.226;37.908;2022-12-16T06:10:24;9.09;92.33
74940;HTU21D;63505;45.226;37.908;2022-12-16T06:13:09;9.11;92.29
74940;HTU21D;63505;45.226;37.908;2022-12-16T06:15:53;9.15;92.29
74940;HTU21D;63505;45.226;37.908;2022-12-16T06:18:38;9.17;92.27
74940;HTU21D;63505;45.226;37.908;2022-12-16T06:21:23;9.18;92.27
74940;HTU21D;63505;45.226;37.908;2022-12-16T06:24:07;9.22;92.25
74940;HTU21D;63505;45.226;37.908;2022-12-16T06:26:51;9.23;92.21
74940;HTU21D;63505;45.226;37.908;2022-12-16T06:29:36;9.25;92.20
74940;HTU21D;63505;45.226;37.908;2022-12-16T06:32:20;9.25;92.18
74940;HTU21D;63505;45.226;37.908;2022-12-16T06:35:05;9.26;92.18
74940;HTU21D;63505;45.226;37.908;2022-12-16T06:37:49;9.29;92.18
74940;HTU21D;63505;45.226;37.908;2022-12-16T06:40:33;9.33;92.18
74940;HTU21D;63505;45.226;37.908;2022-12-16T06:43:18;9.34;92.15
74940;HTU21D;63505;45.226;37.908;2022-12-16T06:46:03;9.36;92.15
74940;HTU21D;63505;45.226;37.908;2022-12-16T06:48:47;9.38;92.14
74940;HTU21D;63505;45.226;37.908;2022-12-16T06:51:32;9.38;92.12
74940;HTU21D;63505;45.226;37.908;2022-12-16T06:54:16;9.38;92.11
74940;HTU21D;63505;45.226;37.908;2022-12-16T06:57:00;9.40;92.11
74940;HTU21D;63505;45.226;37.908;2022-12-16T06:59:45;9.42;92.08
74940;HTU21D;63505;45.226;37.908;2022-12-16T07:02:30;9.44;92.07
74940;HTU21D;63505;45.226;37.908;2022-12-16T07:05:14;9.46;92.05
74940;HTU21D;63505;45.226;37.908;2022-12-16T07:07:59;9.46;92.02
74940;HTU21D;63505;45.226;37.908;2022-12-16T07:10:43;9.46;92.01
74940;HTU21D;63505;45.226;37.908;2022-12-16T07:13:28;9.45;92.01
74940;HTU21D;63505;45.226;37.908;2022-12-16T07:16:12;9.45;92.00
74940;HTU21D;63505;45.226;37.908;2022-12-16T07:18:57;9.44;91.98
74940;HTU21D;63505;45.226;37.908;2022-12-16T07:21:41;9.40;92.00
74940;HTU21D;63505;45.226;37.908;2022-12-16T07:24:26;9.41;92.01
74940;HTU21D;63505;45.226;37.908;2022-12-16T07:27:10;9.39;92.03
74940;HTU21D;63505;45.226;37.908;2022-12-16T07:29:54;9.40;92.06
74940;HTU21D;63505;45.226;37.908;2022-12-16T07:32:39;9.40;92.05
74940;HTU21D;63505;45.226;37.908;2022-12-16T07:35:23;9.41;92.05
74940;HTU21D;63505;45.226;37.908;2022-12-16T07:38:08;9.39;92.02
74940;HTU21D;63505;45.226;37.908;2022-12-16T07:40:52;9.37;92.05
74940;HTU21D;63505;45.226;37.908;2022-12-16T07:43:37;9.36;92.04
74940;HTU21D;63505;45.226;37.908;2022-12-16T07:46:21;9.37;92.05
74940;HTU21D;63505;45.226;37.908;2022-12-16T07:49:06;9.37;92.05
74940;HTU21D;63505;45.226;37.908;2022-12-16T07:51:50;9.37;92.04
74940;HTU21D;63505;45.226;37.908;2022-12-16T07:54:35;9.38;92.03
74940;HTU21D;63505;45.226;37.908;2022-12-16T07:57:19;9.32;91.98
74940;HTU21D;63505;45.226;37.908;2022-12-16T08:00:04;9.30;92.07
74940;HTU21D;63505;45.226;37.908;2022-12-16T08:02:54;9.29;92.10
74940;HTU21D;63505;45.226;37.908;2022-12-16T08:05:59;9.31;92.09
74940;HTU21D;63505;45.226;37.908;2022-12-16T08:08:43;9.33;92.07
74940;HTU21D;63505;45.226;37.908;2022-12-16T08:11:28;9.32;92.06
74940;HTU21D;63505;45.226;37.908;2022-12-16T08:14:12;9.34;92.05
74940;HTU21D;63505;45.226;37.908;2022-12-16T08:16:57;9.35;92.05
74940;HTU21D;63505;45.226;37.908;2022-12-16T08:19:41;9.36;92.01
74940;HTU21D;63505;45.226;37.908;2022-12-16T08:22:25;9.35;91.99
74940;HTU21D;63505;45.226;37.908;2022-12-16T08:25:10;9.35;92.01
74940;HTU21D;63505;45.226;37.908;2022-12-16T08:27:55;9.38;91.98
74940;HTU21D;63505;45.226;37.908;2022-12-16T08:30:39;9.38;91.96
74940;HTU21D;63505;45.226;37.908;2022-12-16T08:33:23;9.36;91.95
74940;HTU21D;63505;45.226;37.908;2022-12-16T08:36:08;9.36;91.94
74940;HTU21D;63505;45.226;37.908;2022-12-16T08:38:53;9.33;91.93
74940;HTU21D;63505;45.226;37.908;2022-12-16T08:41:37;9.32;91.97
74940;HTU21D;63505;45.226;37.908;2022-12-16T08:44:22;9.30;91.94
74940;HTU21D;63505;45.226;37.908;2022-12-16T08:47:06;9.26;91.98
74940;HTU21D;63505;45.226;37.908;2022-12-16T08:49:51;9.24;91.95
74940;HTU21D;63505;45.226;37.908;2022-12-16T08:52:35;9.19;91.97
74940;HTU21D;63505;45.226;37.908;2022-12-16T08:55:19;9.18;91.97
74940;HTU21D;63505;45.226;37.908;2022-12-16T08:58:04;9.15;92.01
74940;HTU21D;63505;45.226;37.908;2022-12-16T09:00:48;9.14;92.00
74940;HTU21D;63505;45.226;37.908;2022-12-16T09:03:33;9.10;92.04
74940;HTU21D;63505;45.226;37.908;2022-12-16T09:06:17;9.08;92.02
74940;HTU21D;63505;45.226;37.908;2022-12-16T09:09:01;9.06;92.03
74940;HTU21D;63505;45.226;37.908;2022-12-16T09:11:46;9.06;92.10
74940;HTU21D;63505;45.226;37.908;2022-12-16T09:14:30;9.06;92.03
74940;HTU21D;63505;45.226;37.908;2022-12-16T09:17:15;9.01;91.98
74940;HTU21D;63505;45.226;37.908;2022-12-16T09:19:59;8.95;92.02
74940;HTU21D;63505;45.226;37.908;2022-12-16T09:22:44;8.93;92.07
74940;HTU21D;63505;45.226;37.908;2022-12-16T09:25:28;8.90;92.07
74940;HTU21D;63505;45.226;37.908;2022-12-16T09:28:12;8.87;92.05
74940;HTU21D;63505;45.226;37.908;2022-12-16T09:30:57;8.85;92.05
74940;HTU21D;63505;45.226;37.908;2022-12-16T09:33:41;8.85;92.08
74940;HTU21D;63505;45.226;37.908;2022-12-16T09:36:26;8.80;92.01
74940;HTU21D;63505;45.226;37.908;2022-12-16T09:39:10;8.77;92.02
74940;HTU21D;63505;45.226;37.908;2022-12-16T09:45:00;8.75;92.02
74940;HTU21D;63505;45.226;37.908;2022-12-16T09:48:25;8.70;91.99
74940;HTU21D;63505;45.226;37.908;2022-12-16T09:51:07;8.72;92.05
74940;HTU21D;63505;45.226;37.908;2022-12-16T09:53:54;8.75;91.96
74940;HTU21D;63505;45.226;37.908;2022-12-16T09:56:38;8.78;91.92
74940;HTU21D;63505;45.226;37.908;2022-12-16T09:59:27;8.77;91.89
74940;HTU21D;63505;45.226;37.908;2022-12-16T10:02:14;8.79;91.82
74940;HTU21D;63505;45.226;37.908;2022-12-16T10:05:00;8.78;91.83
74940;HTU21D;63505;45.226;37.908;2022-12-16T10:07:58;8.81;91.79
74940;HTU21D;63505;45.226;37.908;2022-12-16T10:16:48;9.00;91.61
74940;HTU21D;63505;45.226;37.908;2022-12-16T10:19:44;9.05;91.57
74940;HTU21D;63505;45.226;37.908;2022-12-16T10:22:44;9.09;91.43
74940;HTU21D;63505;45.226;37.908;2022-12-16T10:31:19;9.09;91.33
74940;HTU21D;63505;45.226;37.908;2022-12-16T10:34:15;9.11;91.33
74940;HTU21D;63505;45.226;37.908;2022-12-16T10:37:01;9.12;91.29
74940;HTU21D;63505;45.226;37.908;2022-12-16T10:39:51;9.15;91.25
74940;HTU21D;63505;45.226;37.908;2022-12-16T10:42:49;9.09;91.21
74940;HTU21D;63505;45.226;37.908;2022-12-16T10:45:42;9.06;91.21
74940;HTU21D;63505;45.226;37.908;2022-12-16T10:48:29;9.04;91.25
74940;HTU21D;63505;45.226;37.908;2022-12-16T10:51:21;9.07;91.24
74940;HTU21D;63505;45.226;37.908;2022-12-16T10:57:12;9.15;91.15
74940;HTU21D;63505;45.226;37.908;2022-12-16T11:00:16;9.12;91.08
74940;HTU21D;63505;45.226;37.908;2022-12-16T11:03:40;9.14;91.09
74940;HTU21D;63505;45.226;37.908;2022-12-16T11:09:29;9.12;91.04
74940;HTU21D;63505;45.226;37.908;2022-12-16T11:12:26;9.14;90.92
74940;HTU21D;63505;45.226;37.908;2022-12-16T11:18:20;9.09;90.89
74940;HTU21D;63505;45.226;37.908;2022-12-16T11:27:00;9.14;90.86
74940;HTU21D;63505;45.226;37.908;2022-12-16T11:29:50;9.17;90.82
74940;HTU21D;63505;45.226;37.908;2022-12-16T11:32:36;9.20;90.74
74940;HTU21D;63505;45.226;37.908;2022-12-16T11:35:25;9.20;90.68
74940;HTU21D;63505;45.226;37.908;2022-12-16T11:38:23;9.17;90.60
74940;HTU21D;63505;45.226;37.908;2022-12-16T11:41:25;9.12;90.60
74940;HTU21D;63505;45.226;37.908;2022-12-16T11:44:18;9.14;90.63
74940;HTU21D;63505;45.226;37.908;2022-12-16T11:47:11;9.16;90.57
74940;HTU21D;63505;45.226;37.908;2022-12-16T11:49:59;9.14;90.56
74940;HTU21D;63505;45.226;37.908;2022-12-16T11:52:50;9.11;90.49
74940;HTU21D;63505;45.226;37.908;2022-12-16T11:55:36;9.16;90.54
74940;HTU21D;63505;45.226;37.908;2022-12-16T11:58:34;9.20;90.48
74940;HTU21D;63505;45.226;37.908;2022-12-16T12:01:29;9.22;90.38
74940;HTU21D;63505;45.226;37.908;2022-12-16T12:04:16;9.22;90.37
74940;HTU21D;63505;45.226;37.908;2022-12-16T12:13:51;9.33;90.28
74940;HTU21D;63505;45.226;37.908;2022-12-16T12:17:10;9.30;90.23
74940;HTU21D;63505;45.226;37.908;2022-12-16T12:22:57;9.21;90.18
74940;HTU21D;63505;45.226;37.908;2022-12-16T12:28:58;9.05;90.23
74940;HTU21D;63505;45.226;37.908;2022-12-16T12:38:23;8.83;90.37
74940;HTU21D;63505;45.226;37.908;2022-12-16T12:41:26;8.78;90.32
74940;HTU21D;63505;45.226;37.908;2022-12-16T12:47:04;8.65;90.31
74940;HTU21D;63505;45.226;37.908;2022-12-16T12:56:31;8.53;90.31
74940;HTU21D;63505;45.226;37.908;2022-12-16T12:59:35;8.52;90.29
74940;HTU21D;63505;45.226;37.908;2022-12-16T13:02:24;8.47;90.29
74940;HTU21D;63505;45.226;37.908;2022-12-16T13:05:11;8.42;90.31
74940;HTU21D;63505;45.226;37.908;2022-12-16T13:11:20;8.26;90.19
74940;HTU21D;63505;45.226;37.908;2022-12-16T13:17:13;8.07;90.38
74940;HTU21D;63505;45.226;37.908;2022-12-16T13:19:57;8.01;90.40
74940;HTU21D;63505;45.226;37.908;2022-12-16T13:22:43;7.96;90.49
74940;HTU21D;63505;45.226;37.908;2022-12-16T13:25:49;7.88;90.50
74940;HTU21D;63505;45.226;37.908;2022-12-16T13:28:39;7.82;90.53
74940;HTU21D;63505;45.226;37.908;2022-12-16T13:31:25;7.77;90.63
74940;HTU21D;63505;45.226;37.908;2022-12-16T13:37:00;7.77;90.62
74940;HTU21D;63505;45.226;37.908;2022-12-16T13:40:41;7.78;90.59
74940;HTU21D;63505;45.226;37.908;2022-12-16T13:46:42;7.85;90.43
74940;HTU21D;63505;45.226;37.908;2022-12-16T13:58:41;7.83;90.26
74940;HTU21D;63505;45.226;37.908;2022-12-16T14:04:35;7.77;90.29
74940;HTU21D;63505;45.226;37.908;2022-12-16T14:07:21;7.74;90.24
74940;HTU21D;63505;45.226;37.908;2022-12-16T14:10:27;7.71;90.31
74940;HTU21D;63505;45.226;37.908;2022-12-16T14:13:16;7.65;90.41
74940;HTU21D;63505;45.226;37.908;2022-12-16T14:24:50;7.69;90.50
74940;HTU21D;63505;45.226;37.908;2022-12-16T14:27:36;7.68;90.44
74940;HTU21D;63505;45.226;37.908;2022-12-16T14:30:23;7.68;90.41
74940;HTU21D;63505;45.226;37.908;2022-12-16T14:33:26;7.70;90.42
74940;HTU21D;63505;45.226;37.908;2022-12-16T14:36:26;7.75;90.36
74940;HTU21D;63505;45.226;37.908;2022-12-16T14:39:21;7.76;90.31
74940;HTU21D;63505;45.226;37.908;2022-12-16T14:42:26;7.78;90.28
74940;HTU21D;63505;45.226;37.908;2022-12-16T14:45:20;7.81;90.25
74940;HTU21D;63505;45.226;37.908;2022-12-16T14:48:21;7.83;90.25
74940;HTU21D;63505;45.226;37.908;2022-12-16T14:57:29;7.86;90.18
74940;HTU21D;63505;45.226;37.908;2022-12-16T15:00:20;7.84;90.18
74940;HTU21D;63505;45.226;37.908;2022-12-16T15:06:20;7.79;90.24
74940;HTU21D;63505;45.226;37.908;2022-12-16T15:09:10;7.79;90.28
74940;HTU21D;63505;45.226;37.908;2022-12-16T15:11:56;7.83;90.31
74940;HTU21D;63505;45.226;37.908;2022-12-16T15:14:41;7.81;90.21
74940;HTU21D;63505;45.226;37.908;2022-12-16T15:17:30;7.75;90.32
74940;HTU21D;63505;45.226;37.908;2022-12-16T15:20:20;7.75;90.42
74940;HTU21D;63505;45.226;37.908;2022-12-16T15:23:32;7.72;90.49
74940;HTU21D;63505;45.226;37.908;2022-12-16T15:26:25;7.69;90.61
74940;HTU21D;63505;45.226;37.908;2022-12-16T15:29:33;7.71;90.79
74940;HTU21D;63505;45.226;37.908;2022-12-16T15:35:32;7.71;90.86
74940;HTU21D;63505;45.226;37.908;2022-12-16T15:38:26;7.70;90.96
74940;HTU21D;63505;45.226;37.908;2022-12-16T15:44:25;7.69;91.26
74940;HTU21D;63505;45.226;37.908;2022-12-16T15:47:33;7.73;91.32
74940;HTU21D;63505;45.226;37.908;2022-12-16T15:50:20;7.74;91.34
74940;HTU21D;63505;45.226;37.908;2022-12-16T15:53:28;7.75;91.40
74940;HTU21D;63505;45.226;37.908;2022-12-16T15:59:26;7.82;91.41
74940;HTU21D;63505;45.226;37.908;2022-12-16T16:02:20;7.79;91.42
74940;HTU21D;63505;45.226;37.908;2022-12-16T16:05:22;7.75;91.44
74940;HTU21D;63505;45.226;37.908;2022-12-16T16:08:09;7.72;91.55
74940;HTU21D;63505;45.226;37.908;2022-12-16T16:10:54;7.68;91.73
74940;HTU21D;63505;45.226;37.908;2022-12-16T16:13:38;7.68;91.89
74940;HTU21D;63505;45.226;37.908;2022-12-16T16:16:23;7.67;91.98
74940;HTU21D;63505;45.226;37.908;2022-12-16T16:19:21;7.65;92.14
74940;HTU21D;63505;45.226;37.908;2022-12-16T16:22:15;7.62;92.25
74940;HTU21D;63505;45.226;37.908;2022-12-16T16:24:59;7.58;92.44
74940;HTU21D;63505;45.226;37.908;2022-12-16T16:27:44;7.56;92.63
74940;HTU21D;63505;45.226;37.908;2022-12-16T16:30:28;7.56;92.84
74940;HTU21D;63505;45.226;37.908;2022-12-16T16:33:13;7.56;92.91
74940;HTU21D;63505;45.226;37.908;2022-12-16T16:35:58;7.58;93.02
74940;HTU21D;63505;45.226;37.908;2022-12-16T16:38:42;7.55;93.11
74940;HTU21D;63505;45.226;37.908;2022-12-16T16:41:27;7.54;93.16
74940;HTU21D;63505;45.226;37.908;2022-12-16T16:44:11;7.52;93.29
74940;HTU21D;63505;45.226;37.908;2022-12-16T16:46:56;7.53;93.35
74940;HTU21D;63505;45.226;37.908;2022-12-16T16:49:43;7.54;93.40
74940;HTU21D;63505;45.226;37.908;2022-12-16T16:52:35;7.52;93.44
74940;HTU21D;63505;45.226;37.908;2022-12-16T16:55:22;7.50;93.50
74940;HTU21D;63505;45.226;37.908;2022-12-16T16:58:12;7.49;93.58
74940;HTU21D;63505;45.226;37.908;2022-12-16T17:00:57;7.50;93.64
74940;HTU21D;63505;45.226;37.908;2022-12-16T17:03:42;7.56;93.68
74940;HTU21D;63505;45.226;37.908;2022-12-16T17:06:26;7.56;93.65
74940;HTU21D;63505;45.226;37.908;2022-12-16T17:09:11;7.56;93.69
74940;HTU21D;63505;45.226;37.908;2022-12-16T17:11:56;7.55;93.66
74940;HTU21D;63505;45.226;37.908;2022-12-16T17:14:40;7.53;93.67
74940;HTU21D;63505;45.226;37.908;2022-12-16T17:17:25;7.50;93.67
74940;HTU21D;63505;45.226;37.908;2022-12-16T17:20:14;7.45;93.73
74940;HTU21D;63505;45.226;37.908;2022-12-16T17:22:59;7.42;93.75
74940;HTU21D;63505;45.226;37.908;2022-12-16T17:25:43;7.38;93.85
74940;HTU21D;63505;45.226;37.908;2022-12-16T17:28:28;7.34;93.88
74940;HTU21D;63505;45.226;37.908;2022-12-16T17:31:12;7.34;94.00
74940;HTU21D;63505;45.226;37.908;2022-12-16T17:33:56;7.35;94.03
74940;HTU21D;63505;45.226;37.908;2022-12-16T17:36:41;7.33;94.01
74940;HTU21D;63505;45.226;37.908;2022-12-16T17:39:26;7.33;94.04
74940;HTU21D;63505;45.226;37.908;2022-12-16T17:42:10;7.30;94.07
74940;HTU21D;63505;45.226;37.908;2022-12-16T17:44:55;7.25;94.12
74940;HTU21D;63505;45.226;37.908;2022-12-16T17:47:39;7.24;94.20
74940;HTU21D;63505;45.226;37.908;2022-12-16T17:50:23;7.26;94.23
74940;HTU21D;63505;45.226;37.908;2022-12-16T17:53:08;7.24;94.21
74940;HTU21D;63505;45.226;37.908;2022-12-16T17:55:52;7.20;94.27
74940;HTU21D;63505;45.226;37.908;2022-12-16T17:58:37;7.17;94.26
74940;HTU21D;63505;45.226;37.908;2022-12-16T18:01:23;7.14;94.33
74940;HTU21D;63505;45.226;37.908;2022-12-16T18:04:08;7.11;94.35
74940;HTU21D;63505;45.226;37.908;2022-12-16T18:06:52;7.07;94.40
74940;HTU21D;63505;45.226;37.908;2022-12-16T18:09:37;7.00;94.43
74940;HTU21D;63505;45.226;37.908;2022-12-16T18:12:21;6.98;94.53
74940;HTU21D;63505;45.226;37.908;2022-12-16T18:15:06;6.96;94.56
74940;HTU21D;63505;45.226;37.908;2022-12-16T18:17:51;6.96;94.61
74940;HTU21D;63505;45.226;37.908;2022-12-16T18:20:35;7.01;94.91
74940;HTU21D;63505;45.226;37.908;2022-12-16T18:23:20;7.08;94.98
74940;HTU21D;63505;45.226;37.908;2022-12-16T18:26:07;7.12;94.96
74940;HTU21D;63505;45.226;37.908;2022-12-16T18:28:52;7.11;94.98
74940;HTU21D;63505;45.226;37.908;2022-12-16T18:31:37;7.14;95.02
74940;HTU21D;63505;45.226;37.908;2022-12-16T18:34:21;7.18;94.85
74940;HTU21D;63505;45.226;37.908;2022-12-16T18:37:09;7.18;94.85
74940;HTU21D;63505;45.226;37.908;2022-12-16T18:39:54;7.19;94.80
74940;HTU21D;63505;45.226;37.908;2022-12-16T18:42:38;7.19;94.75
74940;HTU21D;63505;45.226;37.908;2022-12-16T18:45:23;7.18;94.78
74940;HTU21D;63505;45.226;37.908;2022-12-16T18:48:07;7.17;94.69
74940;HTU21D;63505;45.226;37.908;2022-12-16T18:50:57;7.12;94.65
74940;HTU21D;63505;45.226;37.908;2022-12-16T18:53:42;7.10;94.61
74940;HTU21D;63505;45.226;37.908;2022-12-16T18:56:27;7.04;94.61
74940;HTU21D;63505;45.226;37.908;2022-12-16T18:59:12;7.00;94.64
74940;HTU21D;63505;45.226;37.908;2022-12-16T19:01:56;6.99;94.69
74940;HTU21D;63505;45.226;37.908;2022-12-16T19:04:41;6.98;94.75
74940;HTU21D;63505;45.226;37.908;2022-12-16T19:07:26;6.99;94.76
74940;HTU21D;63505;45.226;37.908;2022-12-16T19:10:10;6.99;94.81
74940;HTU21D;63505;45.226;37.908;2022-12-16T19:12:59;6.99;94.75
74940;HTU21D;63505;45.226;37.908;2022-12-16T19:15:56;6.98;94.75